sensor_id;sensor_type;location;lat;lon;timestamp;P1;durP1;ratioP1;P2;durP2;ratioP2
74162;SDS011;62515;52.758;5.076;2022-08-03T00:00:24;12.40;;;2.78;;
74162;SDS011;62515;52.758;5.076;2022-08-03T00:02:51;10.77;;;2.88;;
74162;SDS011;62515;52.758;5.076;2022-08-03T00:05:19;11.02;;;2.75;;
74162;SDS011;62515;52.758;5.076;2022-08-03T00:07:46;12.10;;;3.63;;
74162;SDS011;62515;52.758;5.076;2022-08-03T00:10:14;12.75;;;3.25;;
74162;SDS011;62515;52.758;5.076;2022-08-03T00:12:43;9.98;;;3.00;;
74162;SDS011;62515;52.758;5.076;2022-08-03T00:15:10;8.35;;;2.72;;
74162;SDS011;62515;52.758;5.076;2022-08-03T00:17:42;14.00;;;3.22;;
74162;SDS011;62515;52.758;5.076;2022-08-03T00:20:18;9.30;;;3.00;;
74162;SDS011;62515;52.758;5.076;2022-08-03T00:22:45;10.65;;;3.17;;
74162;SDS011;62515;52.758;5.076;2022-08-03T00:25:12;12.25;;;3.17;;
74162;SDS011;62515;52.758;5.076;2022-08-03T00:27:39;13.40;;;3.20;;
74162;SDS011;62515;52.758;5.076;2022-08-03T00:30:08;10.65;;;3.28;;
74162;SDS011;62515;52.758;5.076;2022-08-03T00:32:35;18.77;;;3.53;;
74162;SDS011;62515;52.758;5.076;2022-08-03T00:35:09;9.27;;;3.15;;
74162;SDS011;62515;52.758;5.076;2022-08-03T00:37:57;11.10;;;2.70;;
74162;SDS011;62515;52.758;5.076;2022-08-03T00:40:25;12.73;;;2.80;;
74162;SDS011;62515;52.758;5.076;2022-08-03T00:42:52;10.27;;;2.70;;
74162;SDS011;62515;52.758;5.076;2022-08-03T00:45:23;10.90;;;2.95;;
74162;SDS011;62515;52.758;5.076;2022-08-03T00:47:51;12.10;;;2.60;;
74162;SDS011;62515;52.758;5.076;2022-08-03T00:50:18;12.02;;;3.05;;
74162;SDS011;62515;52.758;5.076;2022-08-03T00:52:48;15.18;;;3.05;;
74162;SDS011;62515;52.758;5.076;2022-08-03T00:55:17;7.90;;;2.80;;
74162;SDS011;62515;52.758;5.076;2022-08-03T00:57:44;14.60;;;2.50;;
74162;SDS011;62515;52.758;5.076;2022-08-03T01:00:13;12.65;;;2.35;;
74162;SDS011;62515;52.758;5.076;2022-08-03T01:02:44;14.77;;;2.65;;
74162;SDS011;62515;52.758;5.076;2022-08-03T01:05:12;17.55;;;2.88;;
74162;SDS011;62515;52.758;5.076;2022-08-03T01:07:41;11.63;;;2.70;;
74162;SDS011;62515;52.758;5.076;2022-08-03T01:10:23;10.63;;;2.75;;
74162;SDS011;62515;52.758;5.076;2022-08-03T01:12:58;11.45;;;3.72;;
74162;SDS011;62515;52.758;5.076;2022-08-03T01:15:40;10.70;;;2.83;;
74162;SDS011;62515;52.758;5.076;2022-08-03T01:18:14;12.10;;;2.85;;
74162;SDS011;62515;52.758;5.076;2022-08-03T01:20:46;13.15;;;3.30;;
74162;SDS011;62515;52.758;5.076;2022-08-03T01:23:26;17.42;;;3.63;;
74162;SDS011;62515;52.758;5.076;2022-08-03T01:26:12;11.50;;;2.72;;
74162;SDS011;62515;52.758;5.076;2022-08-03T01:31:33;10.18;;;2.50;;
74162;SDS011;62515;52.758;5.076;2022-08-03T01:34:27;12.52;;;2.70;;
74162;SDS011;62515;52.758;5.076;2022-08-03T01:36:58;13.38;;;3.33;;
74162;SDS011;62515;52.758;5.076;2022-08-03T01:39:28;14.57;;;3.47;;
74162;SDS011;62515;52.758;5.076;2022-08-03T01:41:58;12.18;;;3.00;;
74162;SDS011;62515;52.758;5.076;2022-08-03T01:44:33;15.55;;;3.38;;
74162;SDS011;62515;52.758;5.076;2022-08-03T01:47:05;17.10;;;3.25;;
74162;SDS011;62515;52.758;5.076;2022-08-03T01:49:36;9.20;;;3.05;;
74162;SDS011;62515;52.758;5.076;2022-08-03T01:52:05;13.50;;;3.30;;
74162;SDS011;62515;52.758;5.076;2022-08-03T01:54:34;15.82;;;2.90;;
74162;SDS011;62515;52.758;5.076;2022-08-03T01:57:03;13.45;;;3.33;;
74162;SDS011;62515;52.758;5.076;2022-08-03T01:59:31;12.82;;;3.40;;
74162;SDS011;62515;52.758;5.076;2022-08-03T02:02:01;15.80;;;3.20;;
74162;SDS011;62515;52.758;5.076;2022-08-03T02:04:51;12.43;;;3.13;;
74162;SDS011;62515;52.758;5.076;2022-08-03T02:07:22;9.63;;;3.20;;
74162;SDS011;62515;52.758;5.076;2022-08-03T02:09:51;16.75;;;4.40;;
74162;SDS011;62515;52.758;5.076;2022-08-03T02:12:21;11.73;;;3.10;;
74162;SDS011;62515;52.758;5.076;2022-08-03T02:14:50;18.50;;;3.65;;
74162;SDS011;62515;52.758;5.076;2022-08-03T02:17:19;15.15;;;4.22;;
74162;SDS011;62515;52.758;5.076;2022-08-03T02:20:08;11.05;;;3.65;;
74162;SDS011;62515;52.758;5.076;2022-08-03T02:22:38;9.98;;;3.40;;
74162;SDS011;62515;52.758;5.076;2022-08-03T02:25:06;13.88;;;3.50;;
74162;SDS011;62515;52.758;5.076;2022-08-03T02:27:34;14.10;;;3.67;;
74162;SDS011;62515;52.758;5.076;2022-08-03T02:30:09;13.88;;;3.70;;
74162;SDS011;62515;52.758;5.076;2022-08-03T02:32:38;11.07;;;3.33;;
74162;SDS011;62515;52.758;5.076;2022-08-03T02:35:10;11.52;;;3.50;;
74162;SDS011;62515;52.758;5.076;2022-08-03T02:37:40;18.15;;;3.38;;
74162;SDS011;62515;52.758;5.076;2022-08-03T02:40:14;8.88;;;3.03;;
74162;SDS011;62515;52.758;5.076;2022-08-03T02:42:44;13.90;;;3.70;;
74162;SDS011;62515;52.758;5.076;2022-08-03T02:45:14;10.70;;;3.10;;
74162;SDS011;62515;52.758;5.076;2022-08-03T02:47:43;16.08;;;3.40;;
74162;SDS011;62515;52.758;5.076;2022-08-03T02:50:21;14.25;;;3.55;;
74162;SDS011;62515;52.758;5.076;2022-08-03T02:52:50;16.02;;;3.72;;
74162;SDS011;62515;52.758;5.076;2022-08-03T02:55:18;12.32;;;3.95;;
74162;SDS011;62515;52.758;5.076;2022-08-03T02:57:47;17.45;;;4.05;;
74162;SDS011;62515;52.758;5.076;2022-08-03T03:00:15;14.68;;;4.03;;
74162;SDS011;62515;52.758;5.076;2022-08-03T03:02:53;17.42;;;3.95;;
74162;SDS011;62515;52.758;5.076;2022-08-03T03:05:24;19.63;;;4.22;;
74162;SDS011;62515;52.758;5.076;2022-08-03T03:08:11;12.98;;;4.00;;
74162;SDS011;62515;52.758;5.076;2022-08-03T03:10:44;15.65;;;3.40;;
74162;SDS011;62515;52.758;5.076;2022-08-03T03:13:12;15.60;;;3.53;;
74162;SDS011;62515;52.758;5.076;2022-08-03T03:18:08;14.88;;;3.75;;
74162;SDS011;62515;52.758;5.076;2022-08-03T03:20:38;18.45;;;3.53;;
74162;SDS011;62515;52.758;5.076;2022-08-03T03:23:06;16.13;;;4.25;;
74162;SDS011;62515;52.758;5.076;2022-08-03T03:25:35;18.27;;;3.45;;
74162;SDS011;62515;52.758;5.076;2022-08-03T03:28:02;13.00;;;3.85;;
74162;SDS011;62515;52.758;5.076;2022-08-03T03:30:32;19.23;;;4.13;;
74162;SDS011;62515;52.758;5.076;2022-08-03T03:32:59;16.83;;;3.47;;
74162;SDS011;62515;52.758;5.076;2022-08-03T03:35:26;10.73;;;3.33;;
74162;SDS011;62515;52.758;5.076;2022-08-03T03:37:55;9.55;;;3.83;;
74162;SDS011;62515;52.758;5.076;2022-08-03T03:40:22;14.52;;;3.25;;
74162;SDS011;62515;52.758;5.076;2022-08-03T03:42:49;14.32;;;3.40;;
74162;SDS011;62515;52.758;5.076;2022-08-03T03:45:16;20.88;;;4.32;;
74162;SDS011;62515;52.758;5.076;2022-08-03T03:47:44;21.42;;;4.32;;
74162;SDS011;62515;52.758;5.076;2022-08-03T03:50:12;12.60;;;3.92;;
74162;SDS011;62515;52.758;5.076;2022-08-03T03:52:41;16.25;;;3.38;;
74162;SDS011;62515;52.758;5.076;2022-08-03T03:55:10;19.17;;;4.65;;
74162;SDS011;62515;52.758;5.076;2022-08-03T03:57:41;13.63;;;3.63;;
74162;SDS011;62515;52.758;5.076;2022-08-03T04:00:09;17.75;;;3.70;;
74162;SDS011;62515;52.758;5.076;2022-08-03T04:02:37;14.93;;;3.30;;
74162;SDS011;62515;52.758;5.076;2022-08-03T04:05:05;12.73;;;3.35;;
74162;SDS011;62515;52.758;5.076;2022-08-03T04:07:55;15.80;;;3.13;;
74162;SDS011;62515;52.758;5.076;2022-08-03T04:10:45;16.15;;;3.33;;
74162;SDS011;62515;52.758;5.076;2022-08-03T04:13:26;14.13;;;4.13;;
74162;SDS011;62515;52.758;5.076;2022-08-03T04:15:56;9.35;;;3.45;;
74162;SDS011;62515;52.758;5.076;2022-08-03T04:18:24;17.80;;;3.13;;
74162;SDS011;62515;52.758;5.076;2022-08-03T04:20:55;18.40;;;3.20;;
74162;SDS011;62515;52.758;5.076;2022-08-03T04:23:26;15.27;;;3.75;;
74162;SDS011;62515;52.758;5.076;2022-08-03T04:25:56;19.13;;;3.97;;
74162;SDS011;62515;52.758;5.076;2022-08-03T04:28:24;22.95;;;3.47;;
74162;SDS011;62515;52.758;5.076;2022-08-03T04:30:57;15.73;;;3.90;;
74162;SDS011;62515;52.758;5.076;2022-08-03T04:33:25;10.65;;;3.58;;
74162;SDS011;62515;52.758;5.076;2022-08-03T04:35:56;19.15;;;3.85;;
74162;SDS011;62515;52.758;5.076;2022-08-03T04:38:27;13.23;;;3.55;;
74162;SDS011;62515;52.758;5.076;2022-08-03T04:40:58;11.88;;;4.00;;
74162;SDS011;62515;52.758;5.076;2022-08-03T04:43:27;15.65;;;3.45;;
74162;SDS011;62515;52.758;5.076;2022-08-03T04:45:57;14.90;;;3.63;;
74162;SDS011;62515;52.758;5.076;2022-08-03T04:48:25;14.48;;;4.05;;
74162;SDS011;62515;52.758;5.076;2022-08-03T04:50:53;14.68;;;3.47;;
74162;SDS011;62515;52.758;5.076;2022-08-03T04:53:20;17.50;;;4.40;;
74162;SDS011;62515;52.758;5.076;2022-08-03T04:55:48;14.45;;;4.13;;
74162;SDS011;62515;52.758;5.076;2022-08-03T04:58:17;13.38;;;3.78;;
74162;SDS011;62515;52.758;5.076;2022-08-03T05:00:43;15.85;;;3.97;;
74162;SDS011;62515;52.758;5.076;2022-08-03T05:03:11;15.70;;;3.75;;
74162;SDS011;62515;52.758;5.076;2022-08-03T05:05:49;16.33;;;3.65;;
74162;SDS011;62515;52.758;5.076;2022-08-03T05:08:16;17.55;;;3.60;;
74162;SDS011;62515;52.758;5.076;2022-08-03T05:10:47;18.85;;;4.13;;
74162;SDS011;62515;52.758;5.076;2022-08-03T05:13:14;13.40;;;3.50;;
74162;SDS011;62515;52.758;5.076;2022-08-03T05:15:43;22.23;;;4.35;;
74162;SDS011;62515;52.758;5.076;2022-08-03T05:18:10;11.75;;;3.50;;
74162;SDS011;62515;52.758;5.076;2022-08-03T05:20:39;16.52;;;4.32;;
74162;SDS011;62515;52.758;5.076;2022-08-03T05:23:06;16.80;;;3.95;;
74162;SDS011;62515;52.758;5.076;2022-08-03T05:25:33;20.35;;;3.40;;
74162;SDS011;62515;52.758;5.076;2022-08-03T05:28:00;19.77;;;4.00;;
74162;SDS011;62515;52.758;5.076;2022-08-03T05:30:28;14.85;;;3.70;;
74162;SDS011;62515;52.758;5.076;2022-08-03T05:33:00;16.70;;;4.07;;
74162;SDS011;62515;52.758;5.076;2022-08-03T05:35:28;12.65;;;3.50;;
74162;SDS011;62515;52.758;5.076;2022-08-03T05:40:59;19.10;;;4.18;;
74162;SDS011;62515;52.758;5.076;2022-08-03T05:43:46;13.98;;;3.20;;
74162;SDS011;62515;52.758;5.076;2022-08-03T05:46:14;14.00;;;3.90;;
74162;SDS011;62515;52.758;5.076;2022-08-03T05:48:41;18.95;;;3.95;;
74162;SDS011;62515;52.758;5.076;2022-08-03T05:51:09;14.45;;;3.83;;
74162;SDS011;62515;52.758;5.076;2022-08-03T05:53:39;11.00;;;3.45;;
74162;SDS011;62515;52.758;5.076;2022-08-03T05:56:07;25.13;;;4.30;;
74162;SDS011;62515;52.758;5.076;2022-08-03T05:58:41;19.77;;;3.88;;
74162;SDS011;62515;52.758;5.076;2022-08-03T06:01:08;14.68;;;3.85;;
74162;SDS011;62515;52.758;5.076;2022-08-03T06:03:36;15.65;;;3.90;;
74162;SDS011;62515;52.758;5.076;2022-08-03T06:06:03;23.67;;;4.50;;
74162;SDS011;62515;52.758;5.076;2022-08-03T06:08:30;26.10;;;4.47;;
74162;SDS011;62515;52.758;5.076;2022-08-03T06:10:57;21.73;;;4.63;;
74162;SDS011;62515;52.758;5.076;2022-08-03T06:13:24;17.13;;;4.70;;
74162;SDS011;62515;52.758;5.076;2022-08-03T06:15:51;25.38;;;5.00;;
74162;SDS011;62515;52.758;5.076;2022-08-03T06:18:17;21.58;;;5.03;;
74162;SDS011;62515;52.758;5.076;2022-08-03T06:20:46;15.98;;;4.50;;
74162;SDS011;62515;52.758;5.076;2022-08-03T06:23:15;17.25;;;4.68;;
74162;SDS011;62515;52.758;5.076;2022-08-03T06:25:44;16.13;;;5.05;;
74162;SDS011;62515;52.758;5.076;2022-08-03T06:28:11;22.30;;;4.68;;
74162;SDS011;62515;52.758;5.076;2022-08-03T06:30:59;14.52;;;4.65;;
74162;SDS011;62515;52.758;5.076;2022-08-03T06:33:26;22.80;;;4.85;;
74162;SDS011;62515;52.758;5.076;2022-08-03T06:38:41;28.42;;;5.40;;
74162;SDS011;62515;52.758;5.076;2022-08-03T06:41:08;17.63;;;5.13;;
74162;SDS011;62515;52.758;5.076;2022-08-03T06:43:35;17.40;;;4.80;;
74162;SDS011;62515;52.758;5.076;2022-08-03T06:46:22;18.58;;;4.40;;
74162;SDS011;62515;52.758;5.076;2022-08-03T06:48:51;14.20;;;4.80;;
74162;SDS011;62515;52.758;5.076;2022-08-03T06:51:19;18.45;;;4.30;;
74162;SDS011;62515;52.758;5.076;2022-08-03T06:54:06;22.00;;;4.53;;
74162;SDS011;62515;52.758;5.076;2022-08-03T06:56:33;21.98;;;4.22;;
74162;SDS011;62515;52.758;5.076;2022-08-03T06:59:00;17.73;;;5.40;;
74162;SDS011;62515;52.758;5.076;2022-08-03T07:01:27;15.35;;;4.72;;
74162;SDS011;62515;52.758;5.076;2022-08-03T07:03:54;20.98;;;4.90;;
74162;SDS011;62515;52.758;5.076;2022-08-03T07:06:23;20.77;;;4.85;;
74162;SDS011;62515;52.758;5.076;2022-08-03T07:08:50;21.88;;;5.00;;
74162;SDS011;62515;52.758;5.076;2022-08-03T07:11:21;19.38;;;4.75;;
74162;SDS011;62515;52.758;5.076;2022-08-03T07:13:48;17.10;;;3.83;;
74162;SDS011;62515;52.758;5.076;2022-08-03T07:16:15;15.95;;;4.07;;
74162;SDS011;62515;52.758;5.076;2022-08-03T07:18:43;17.52;;;4.55;;
74162;SDS011;62515;52.758;5.076;2022-08-03T07:21:10;21.45;;;5.22;;
74162;SDS011;62515;52.758;5.076;2022-08-03T07:23:39;21.65;;;4.45;;
74162;SDS011;62515;52.758;5.076;2022-08-03T07:26:06;21.58;;;5.00;;
74162;SDS011;62515;52.758;5.076;2022-08-03T07:28:33;18.02;;;5.18;;
74162;SDS011;62515;52.758;5.076;2022-08-03T07:31:00;17.98;;;4.90;;
74162;SDS011;62515;52.758;5.076;2022-08-03T07:33:27;22.13;;;4.75;;
74162;SDS011;62515;52.758;5.076;2022-08-03T07:35:54;21.15;;;5.03;;
74162;SDS011;62515;52.758;5.076;2022-08-03T07:38:20;20.98;;;5.28;;
74162;SDS011;62515;52.758;5.076;2022-08-03T07:40:49;18.75;;;4.30;;
74162;SDS011;62515;52.758;5.076;2022-08-03T07:43:16;18.70;;;4.35;;
74162;SDS011;62515;52.758;5.076;2022-08-03T07:45:43;17.08;;;4.05;;
74162;SDS011;62515;52.758;5.076;2022-08-03T07:48:10;25.08;;;4.57;;
74162;SDS011;62515;52.758;5.076;2022-08-03T07:50:38;25.15;;;4.80;;
74162;SDS011;62515;52.758;5.076;2022-08-03T07:53:05;21.00;;;4.93;;
74162;SDS011;62515;52.758;5.076;2022-08-03T07:55:32;11.63;;;3.30;;
74162;SDS011;62515;52.758;5.076;2022-08-03T07:58:04;21.58;;;4.03;;
74162;SDS011;62515;52.758;5.076;2022-08-03T08:00:34;11.32;;;3.00;;
74162;SDS011;62515;52.758;5.076;2022-08-03T08:03:02;23.42;;;3.78;;
74162;SDS011;62515;52.758;5.076;2022-08-03T08:05:30;21.58;;;3.65;;
74162;SDS011;62515;52.758;5.076;2022-08-03T08:07:57;22.15;;;4.35;;
74162;SDS011;62515;52.758;5.076;2022-08-03T08:10:24;17.40;;;3.65;;
74162;SDS011;62515;52.758;5.076;2022-08-03T08:12:51;14.20;;;3.70;;
74162;SDS011;62515;52.758;5.076;2022-08-03T08:15:20;14.60;;;4.03;;
74162;SDS011;62515;52.758;5.076;2022-08-03T08:17:47;18.63;;;4.13;;
74162;SDS011;62515;52.758;5.076;2022-08-03T08:20:16;21.92;;;3.88;;
74162;SDS011;62515;52.758;5.076;2022-08-03T08:22:54;22.13;;;3.67;;
74162;SDS011;62515;52.758;5.076;2022-08-03T08:25:23;20.13;;;3.88;;
74162;SDS011;62515;52.758;5.076;2022-08-03T08:27:50;18.15;;;3.30;;
74162;SDS011;62515;52.758;5.076;2022-08-03T08:30:39;16.98;;;3.47;;
74162;SDS011;62515;52.758;5.076;2022-08-03T08:33:06;19.77;;;3.85;;
74162;SDS011;62515;52.758;5.076;2022-08-03T08:35:47;16.98;;;3.58;;
74162;SDS011;62515;52.758;5.076;2022-08-03T08:38:14;17.92;;;3.65;;
74162;SDS011;62515;52.758;5.076;2022-08-03T08:40:41;21.33;;;3.42;;
74162;SDS011;62515;52.758;5.076;2022-08-03T08:43:08;20.23;;;3.53;;
74162;SDS011;62515;52.758;5.076;2022-08-03T08:45:35;13.23;;;3.30;;
74162;SDS011;62515;52.758;5.076;2022-08-03T08:48:04;22.73;;;3.63;;
74162;SDS011;62515;52.758;5.076;2022-08-03T08:50:33;19.88;;;3.28;;
74162;SDS011;62515;52.758;5.076;2022-08-03T08:53:04;21.17;;;3.67;;
74162;SDS011;62515;52.758;5.076;2022-08-03T08:55:43;16.73;;;3.13;;
74162;SDS011;62515;52.758;5.076;2022-08-03T08:58:25;15.70;;;3.28;;
74162;SDS011;62515;52.758;5.076;2022-08-03T09:00:55;18.15;;;3.88;;
74162;SDS011;62515;52.758;5.076;2022-08-03T09:03:23;19.02;;;3.40;;
74162;SDS011;62515;52.758;5.076;2022-08-03T09:05:56;21.13;;;3.72;;
74162;SDS011;62515;52.758;5.076;2022-08-03T09:08:25;18.83;;;3.75;;
74162;SDS011;62515;52.758;5.076;2022-08-03T09:10:51;13.50;;;3.38;;
74162;SDS011;62515;52.758;5.076;2022-08-03T09:13:18;21.05;;;3.72;;
74162;SDS011;62515;52.758;5.076;2022-08-03T09:15:45;16.42;;;3.80;;
74162;SDS011;62515;52.758;5.076;2022-08-03T09:18:28;20.70;;;4.18;;
74162;SDS011;62515;52.758;5.076;2022-08-03T09:21:04;21.50;;;4.53;;
74162;SDS011;62515;52.758;5.076;2022-08-03T09:23:56;17.80;;;4.47;;
74162;SDS011;62515;52.758;5.076;2022-08-03T09:26:30;16.67;;;4.50;;
74162;SDS011;62515;52.758;5.076;2022-08-03T09:29:00;17.25;;;4.32;;
74162;SDS011;62515;52.758;5.076;2022-08-03T09:31:32;19.15;;;5.15;;
74162;SDS011;62515;52.758;5.076;2022-08-03T09:34:02;20.58;;;5.07;;
74162;SDS011;62515;52.758;5.076;2022-08-03T09:36:37;20.17;;;4.63;;
74162;SDS011;62515;52.758;5.076;2022-08-03T09:39:06;20.92;;;4.50;;
74162;SDS011;62515;52.758;5.076;2022-08-03T09:41:37;15.70;;;4.18;;
74162;SDS011;62515;52.758;5.076;2022-08-03T09:44:04;13.63;;;4.30;;
74162;SDS011;62515;52.758;5.076;2022-08-03T09:46:43;17.38;;;4.43;;
74162;SDS011;62515;52.758;5.076;2022-08-03T09:49:16;16.77;;;4.22;;
74162;SDS011;62515;52.758;5.076;2022-08-03T09:51:44;21.20;;;4.85;;
74162;SDS011;62515;52.758;5.076;2022-08-03T09:54:31;15.15;;;4.43;;
74162;SDS011;62515;52.758;5.076;2022-08-03T09:56:58;22.20;;;4.93;;
74162;SDS011;62515;52.758;5.076;2022-08-03T09:59:25;22.42;;;4.88;;
74162;SDS011;62515;52.758;5.076;2022-08-03T10:01:54;21.63;;;4.30;;
74162;SDS011;62515;52.758;5.076;2022-08-03T10:04:23;24.90;;;5.10;;
74162;SDS011;62515;52.758;5.076;2022-08-03T10:07:03;19.27;;;5.60;;
74162;SDS011;62515;52.758;5.076;2022-08-03T10:09:31;16.77;;;5.28;;
74162;SDS011;62515;52.758;5.076;2022-08-03T10:12:05;17.58;;;4.55;;
74162;SDS011;62515;52.758;5.076;2022-08-03T10:14:33;23.52;;;5.18;;
74162;SDS011;62515;52.758;5.076;2022-08-03T10:17:03;26.95;;;5.90;;
74162;SDS011;62515;52.758;5.076;2022-08-03T10:19:32;16.40;;;5.72;;
74162;SDS011;62515;52.758;5.076;2022-08-03T10:22:01;16.85;;;5.13;;
74162;SDS011;62515;52.758;5.076;2022-08-03T10:24:30;18.15;;;5.70;;
74162;SDS011;62515;52.758;5.076;2022-08-03T10:27:01;18.70;;;4.35;;
74162;SDS011;62515;52.758;5.076;2022-08-03T10:29:31;17.33;;;4.85;;
74162;SDS011;62515;52.758;5.076;2022-08-03T10:32:03;15.82;;;4.30;;
74162;SDS011;62515;52.758;5.076;2022-08-03T10:34:35;13.88;;;4.40;;
74162;SDS011;62515;52.758;5.076;2022-08-03T10:37:10;13.85;;;5.38;;
74162;SDS011;62515;52.758;5.076;2022-08-03T10:39:38;20.70;;;4.93;;
74162;SDS011;62515;52.758;5.076;2022-08-03T10:42:22;14.93;;;4.35;;
74162;SDS011;62515;52.758;5.076;2022-08-03T10:44:55;18.40;;;5.00;;
74162;SDS011;62515;52.758;5.076;2022-08-03T10:47:29;13.70;;;4.22;;
74162;SDS011;62515;52.758;5.076;2022-08-03T10:49:58;18.05;;;4.30;;
74162;SDS011;62515;52.758;5.076;2022-08-03T10:52:26;17.70;;;4.35;;
74162;SDS011;62515;52.758;5.076;2022-08-03T10:55:01;17.83;;;3.90;;
74162;SDS011;62515;52.758;5.076;2022-08-03T10:57:48;14.70;;;3.90;;
74162;SDS011;62515;52.758;5.076;2022-08-03T11:00:24;15.77;;;3.90;;
74162;SDS011;62515;52.758;5.076;2022-08-03T11:03:08;16.73;;;3.92;;
74162;SDS011;62515;52.758;5.076;2022-08-03T11:05:39;20.30;;;4.28;;
74162;SDS011;62515;52.758;5.076;2022-08-03T11:08:17;14.00;;;2.97;;
74162;SDS011;62515;52.758;5.076;2022-08-03T11:10:45;13.80;;;2.80;;
74162;SDS011;62515;52.758;5.076;2022-08-03T11:13:12;14.77;;;3.33;;
74162;SDS011;62515;52.758;5.076;2022-08-03T11:15:43;14.38;;;3.47;;
74162;SDS011;62515;52.758;5.076;2022-08-03T11:18:12;13.75;;;3.80;;
74162;SDS011;62515;52.758;5.076;2022-08-03T11:20:44;13.60;;;2.72;;
74162;SDS011;62515;52.758;5.076;2022-08-03T11:23:13;12.88;;;3.20;;
74162;SDS011;62515;52.758;5.076;2022-08-03T11:28:42;13.40;;;2.63;;
74162;SDS011;62515;52.758;5.076;2022-08-03T11:34:15;11.50;;;2.53;;
74162;SDS011;62515;52.758;5.076;2022-08-03T11:39:53;12.65;;;2.83;;
74162;SDS011;62515;52.758;5.076;2022-08-03T11:42:41;12.27;;;2.58;;
74162;SDS011;62515;52.758;5.076;2022-08-03T11:45:10;15.05;;;2.72;;
74162;SDS011;62515;52.758;5.076;2022-08-03T11:47:39;11.02;;;2.60;;
74162;SDS011;62515;52.758;5.076;2022-08-03T11:50:17;15.15;;;2.45;;
74162;SDS011;62515;52.758;5.076;2022-08-03T11:52:47;14.32;;;2.10;;
74162;SDS011;62515;52.758;5.076;2022-08-03T11:55:16;13.65;;;2.72;;
74162;SDS011;62515;52.758;5.076;2022-08-03T11:57:47;9.40;;;2.30;;
74162;SDS011;62515;52.758;5.076;2022-08-03T12:00:34;8.63;;;1.83;;
74162;SDS011;62515;52.758;5.076;2022-08-03T12:03:03;12.18;;;2.63;;
74162;SDS011;62515;52.758;5.076;2022-08-03T12:05:32;11.00;;;2.55;;
74162;SDS011;62515;52.758;5.076;2022-08-03T12:08:28;12.35;;;2.80;;
74162;SDS011;62515;52.758;5.076;2022-08-03T12:10:57;14.18;;;2.58;;
74162;SDS011;62515;52.758;5.076;2022-08-03T12:13:25;16.00;;;2.40;;
74162;SDS011;62515;52.758;5.076;2022-08-03T12:16:21;13.05;;;2.85;;
74162;SDS011;62515;52.758;5.076;2022-08-03T12:18:53;13.27;;;2.90;;
74162;SDS011;62515;52.758;5.076;2022-08-03T12:21:20;19.45;;;3.13;;
74162;SDS011;62515;52.758;5.076;2022-08-03T12:23:51;12.27;;;2.40;;
74162;SDS011;62515;52.758;5.076;2022-08-03T12:26:22;13.63;;;2.92;;
74162;SDS011;62515;52.758;5.076;2022-08-03T12:28:49;10.50;;;2.53;;
74162;SDS011;62515;52.758;5.076;2022-08-03T12:31:16;15.52;;;2.78;;
74162;SDS011;62515;52.758;5.076;2022-08-03T12:33:56;11.02;;;2.17;;
74162;SDS011;62515;52.758;5.076;2022-08-03T12:36:26;14.38;;;2.55;;
74162;SDS011;62515;52.758;5.076;2022-08-03T12:38:57;10.95;;;2.70;;
74162;SDS011;62515;52.758;5.076;2022-08-03T12:41:26;11.88;;;2.38;;
74162;SDS011;62515;52.758;5.076;2022-08-03T12:43:54;11.27;;;3.00;;
74162;SDS011;62515;52.758;5.076;2022-08-03T12:46:22;13.52;;;2.22;;
74162;SDS011;62515;52.758;5.076;2022-08-03T12:49:01;16.00;;;2.55;;
74162;SDS011;62515;52.758;5.076;2022-08-03T12:51:31;14.75;;;2.60;;
74162;SDS011;62515;52.758;5.076;2022-08-03T12:56:27;10.25;;;2.65;;
74162;SDS011;62515;52.758;5.076;2022-08-03T12:58:54;9.55;;;2.42;;
74162;SDS011;62515;52.758;5.076;2022-08-03T13:01:21;15.90;;;2.38;;
74162;SDS011;62515;52.758;5.076;2022-08-03T13:03:51;16.33;;;2.50;;
74162;SDS011;62515;52.758;5.076;2022-08-03T13:06:19;13.05;;;2.50;;
74162;SDS011;62515;52.758;5.076;2022-08-03T13:08:48;11.50;;;2.78;;
74162;SDS011;62515;52.758;5.076;2022-08-03T13:11:18;12.15;;;2.45;;
74162;SDS011;62515;52.758;5.076;2022-08-03T13:14:09;14.00;;;2.35;;
74162;SDS011;62515;52.758;5.076;2022-08-03T13:16:45;11.48;;;2.70;;
74162;SDS011;62515;52.758;5.076;2022-08-03T13:19:12;12.40;;;2.47;;
74162;SDS011;62515;52.758;5.076;2022-08-03T13:21:41;15.93;;;2.40;;
74162;SDS011;62515;52.758;5.076;2022-08-03T13:24:28;15.45;;;2.40;;
74162;SDS011;62515;52.758;5.076;2022-08-03T13:26:58;13.00;;;2.65;;
74162;SDS011;62515;52.758;5.076;2022-08-03T13:29:25;16.33;;;2.67;;
74162;SDS011;62515;52.758;5.076;2022-08-03T13:31:52;11.82;;;2.80;;
74162;SDS011;62515;52.758;5.076;2022-08-03T13:34:19;13.45;;;2.67;;
74162;SDS011;62515;52.758;5.076;2022-08-03T13:36:49;10.77;;;2.35;;
74162;SDS011;62515;52.758;5.076;2022-08-03T13:39:34;14.50;;;2.53;;
74162;SDS011;62515;52.758;5.076;2022-08-03T13:42:22;12.35;;;2.70;;
74162;SDS011;62515;52.758;5.076;2022-08-03T13:44:49;12.77;;;2.03;;
74162;SDS011;62515;52.758;5.076;2022-08-03T13:47:17;14.68;;;2.67;;
74162;SDS011;62515;52.758;5.076;2022-08-03T13:49:45;17.88;;;2.15;;
74162;SDS011;62515;52.758;5.076;2022-08-03T13:52:27;10.65;;;2.28;;
74162;SDS011;62515;52.758;5.076;2022-08-03T13:54:54;10.02;;;1.88;;
74162;SDS011;62515;52.758;5.076;2022-08-03T13:57:23;12.45;;;2.47;;
74162;SDS011;62515;52.758;5.076;2022-08-03T14:00:10;11.75;;;2.20;;
74162;SDS011;62515;52.758;5.076;2022-08-03T14:02:42;10.48;;;2.08;;
74162;SDS011;62515;52.758;5.076;2022-08-03T14:05:09;15.38;;;2.65;;
74162;SDS011;62515;52.758;5.076;2022-08-03T14:07:36;15.68;;;2.63;;
74162;SDS011;62515;52.758;5.076;2022-08-03T14:10:03;12.70;;;2.33;;
74162;SDS011;62515;52.758;5.076;2022-08-03T14:12:32;9.05;;;1.90;;
74162;SDS011;62515;52.758;5.076;2022-08-03T14:15:00;11.70;;;2.40;;
74162;SDS011;62515;52.758;5.076;2022-08-03T14:17:27;8.85;;;1.90;;
74162;SDS011;62515;52.758;5.076;2022-08-03T14:20:12;8.80;;;2.00;;
74162;SDS011;62515;52.758;5.076;2022-08-03T14:23:01;11.05;;;1.88;;
74162;SDS011;62515;52.758;5.076;2022-08-03T14:25:28;10.73;;;2.40;;
74162;SDS011;62515;52.758;5.076;2022-08-03T14:28:09;12.27;;;2.40;;
74162;SDS011;62515;52.758;5.076;2022-08-03T14:30:36;10.48;;;2.00;;
74162;SDS011;62515;52.758;5.076;2022-08-03T14:33:03;12.38;;;2.20;;
74162;SDS011;62515;52.758;5.076;2022-08-03T14:35:30;11.70;;;2.13;;
74162;SDS011;62515;52.758;5.076;2022-08-03T14:37:57;10.68;;;2.30;;
74162;SDS011;62515;52.758;5.076;2022-08-03T14:40:24;13.32;;;2.58;;
74162;SDS011;62515;52.758;5.076;2022-08-03T14:42:50;11.40;;;2.35;;
74162;SDS011;62515;52.758;5.076;2022-08-03T14:45:19;16.65;;;2.38;;
74162;SDS011;62515;52.758;5.076;2022-08-03T14:47:46;11.85;;;2.30;;
74162;SDS011;62515;52.758;5.076;2022-08-03T14:50:32;10.68;;;2.47;;
74162;SDS011;62515;52.758;5.076;2022-08-03T14:53:09;9.95;;;2.13;;
74162;SDS011;62515;52.758;5.076;2022-08-03T14:55:36;13.10;;;2.75;;
74162;SDS011;62515;52.758;5.076;2022-08-03T14:58:16;12.15;;;2.15;;
74162;SDS011;62515;52.758;5.076;2022-08-03T15:00:48;12.98;;;2.33;;
74162;SDS011;62515;52.758;5.076;2022-08-03T15:03:15;13.63;;;2.30;;
74162;SDS011;62515;52.758;5.076;2022-08-03T15:05:46;11.25;;;2.15;;
74162;SDS011;62515;52.758;5.076;2022-08-03T15:08:13;12.80;;;1.85;;
74162;SDS011;62515;52.758;5.076;2022-08-03T15:10:40;13.05;;;2.15;;
74162;SDS011;62515;52.758;5.076;2022-08-03T15:13:10;9.52;;;1.88;;
74162;SDS011;62515;52.758;5.076;2022-08-03T15:15:38;7.90;;;2.00;;
74162;SDS011;62515;52.758;5.076;2022-08-03T15:18:06;9.05;;;1.88;;
74162;SDS011;62515;52.758;5.076;2022-08-03T15:20:33;13.95;;;2.53;;